Time;durP1;ratioP1;P1;durP2;ratioP2;P2;SDS_P1;SDS_P2;PMS_P1;PMS_P2;Temp;Humidity;BMP_temperature;BMP_pressure;BME280_temperature;BME280_humidity;BME280_pressure;Samples;Min_cycle;Max_cycle;Signal;HPM_P1;HPM_P2
2021/11/26 00:02:16;;;;;;;1.75;0.43;;;;;;;;;;4983849;28;20419;-55
2021/11/26 00:04:42;;;;;;;1.67;0.43;;;;;;;;;;4984794;28;20041;-55
2021/11/26 00:07:09;;;;;;;0.75;0.35;;;;;;;;;;4982604;28;20058;-52
2021/11/26 00:09:35;;;;;;;0.70;0.30;;;;;;;;;;4981547;28;20484;-56
2021/11/26 00:12:01;;;;;;;5.55;0.50;;;;;;;;;;4984280;28;20045;-57
2021/11/26 00:14:31;;;;;;;1.75;0.40;;;;;;;;;;4982123;28;20058;-56
2021/11/26 00:16:58;;;;;;;1.35;0.60;;;;;;;;;;4967377;28;20101;-56
2021/11/26 00:19:26;;;;;;;0.90;0.38;;;;;;;;;;4981320;28;20030;-56
2021/11/26 00:21:53;;;;;;;0.82;0.40;;;;;;;;;;4982084;28;20459;-56
2021/11/26 00:24:19;;;;;;;0.30;0.30;;;;;;;;;;4965065;28;20046;-53
2021/11/26 00:26:46;;;;;;;4.78;0.30;;;;;;;;;;4983479;28;20062;-53
2021/11/26 00:29:12;;;;;;;3.05;0.40;;;;;;;;;;4983989;28;20046;-56
2021/11/26 00:31:38;;;;;;;2.65;0.50;;;;;;;;;;4983627;28;20051;-56
2021/11/26 00:34:05;;;;;;;0.75;0.38;;;;;;;;;;4983373;28;20053;-56
2021/11/26 00:36:31;;;;;;;0.90;0.30;;;;;;;;;;4980980;28;20080;-53
2021/11/26 00:38:57;;;;;;;1.55;0.32;;;;;;;;;;4982417;28;20048;-56
2021/11/26 00:41:24;;;;;;;0.98;0.40;;;;;;;;;;4981419;28;20410;-56
2021/11/26 00:43:50;;;;;;;1.00;0.40;;;;;;;;;;4982355;28;20093;-56
2021/11/26 00:46:17;;;;;;;1.13;0.30;;;;;;;;;;4982182;28;20057;-54
2021/11/26 00:48:43;;;;;;;3.78;0.40;;;;;;;;;;4983231;28;20050;-53
2021/11/26 00:51:08;;;;;;;3.30;0.40;;;;;;;;;;4963557;28;20519;-54
2021/11/26 00:53:35;;;;;;;0.88;0.32;;;;;;;;;;4983700;28;20590;-55
2021/11/26 00:56:00;;;;;;;3.58;0.55;;;;;;;;;;4983255;28;20057;-56
2021/11/26 00:58:26;;;;;;;2.65;0.40;;;;;;;;;;4981334;28;20622;-56
2021/11/26 01:00:52;;;;;;;1.13;0.38;;;;;;;;;;4983178;28;20957;-56
2021/11/26 01:03:18;;;;;;;1.60;0.55;;;;;;;;;;4982327;28;20510;-57
2021/11/26 01:05:44;;;;;;;1.55;0.30;;;;;;;;;;4982686;28;20401;-54
2021/11/26 01:08:10;;;;;;;1.17;0.35;;;;;;;;;;4981135;28;20503;-56
2021/11/26 01:10:36;;;;;;;0.90;0.40;;;;;;;;;;4983160;28;20050;-56
2021/11/26 01:13:02;;;;;;;2.95;0.40;;;;;;;;;;4981493;28;20038;-53
2021/11/26 01:15:29;;;;;;;0.75;0.30;;;;;;;;;;4981538;28;20054;-56
2021/11/26 01:17:55;;;;;;;0.65;0.35;;;;;;;;;;4981992;28;20499;-56
2021/11/26 01:20:24;;;;;;;0.30;0.30;;;;;;;;;;4978642;28;20038;-56
2021/11/26 01:22:50;;;;;;;2.50;0.30;;;;;;;;;;4981265;28;20454;-54
2021/11/26 01:25:16;;;;;;;1.23;0.50;;;;;;;;;;4974142;28;20053;-57
2021/11/26 01:27:43;;;;;;;0.88;0.40;;;;;;;;;;4981880;28;20121;-57
2021/11/26 01:30:32;;;;;;;0.65;0.40;;;;;;;;;;4982149;28;20044;-53
2021/11/26 01:32:59;;;;;;;10.02;0.50;;;;;;;;;;4981397;28;21521;-56
2021/11/26 01:35:25;;;;;;;1.23;0.35;;;;;;;;;;4981441;28;20070;-57
2021/11/26 01:37:51;;;;;;;2.78;0.40;;;;;;;;;;4981749;28;20165;-53
2021/11/26 01:40:18;;;;;;;0.43;0.30;;;;;;;;;;4980431;28;20089;-56
2021/11/26 01:42:45;;;;;;;0.93;0.32;;;;;;;;;;4981383;28;20100;-57
2021/11/26 01:45:11;;;;;;;2.53;0.50;;;;;;;;;;4982884;28;20371;-54
2021/11/26 01:47:37;;;;;;;6.65;0.60;;;;;;;;;;4978471;28;20030;-56
2021/11/26 01:50:06;;;;;;;0.47;0.30;;;;;;;;;;4981608;28;20034;-56
2021/11/26 01:52:32;;;;;;;0.77;0.38;;;;;;;;;;4980007;28;20054;-55
2021/11/26 01:54:58;;;;;;;0.65;0.30;;;;;;;;;;4982489;28;20109;-56
2021/11/26 01:57:24;;;;;;;0.70;0.30;;;;;;;;;;4981190;28;20045;-55
2021/11/26 01:59:51;;;;;;;0.65;0.43;;;;;;;;;;4980153;28;20161;-55
2021/11/26 02:02:18;;;;;;;2.47;0.50;;;;;;;;;;4982127;28;20068;-53
2021/11/26 02:04:44;;;;;;;1.00;0.32;;;;;;;;;;4982002;28;20042;-57
2021/11/26 02:07:10;;;;;;;0.85;0.32;;;;;;;;;;4980901;28;20050;-57
2021/11/26 02:09:36;;;;;;;1.10;0.40;;;;;;;;;;4978214;28;20042;-53
2021/11/26 02:12:02;;;;;;;0.70;0.38;;;;;;;;;;4980254;28;20049;-55
2021/11/26 02:14:29;;;;;;;5.05;0.47;;;;;;;;;;4980663;28;20054;-56
2021/11/26 02:16:55;;;;;;;4.18;0.40;;;;;;;;;;4982621;28;20081;-56
2021/11/26 02:19:24;;;;;;;4.07;0.60;;;;;;;;;;4980821;28;20046;-57
2021/11/26 02:21:50;;;;;;;2.38;0.43;;;;;;;;;;4983388;28;20043;-56
2021/11/26 02:24:17;;;;;;;0.20;0.20;;;;;;;;;;4983121;28;20069;-56
2021/11/26 02:26:44;;;;;;;0.38;0.30;;;;;;;;;;4981835;28;20035;-55
2021/11/26 02:29:11;;;;;;;1.15;0.35;;;;;;;;;;4980905;28;20121;-57
2021/11/26 02:31:37;;;;;;;0.30;0.30;;;;;;;;;;4979510;28;20034;-56
2021/11/26 02:34:03;;;;;;;0.60;0.40;;;;;;;;;;4964172;28;20057;-60
2021/11/26 02:36:29;;;;;;;0.30;0.30;;;;;;;;;;4980489;28;20038;-56
2021/11/26 02:38:55;;;;;;;2.05;0.40;;;;;;;;;;4981291;28;20057;-55
2021/11/26 02:41:21;;;;;;;1.05;0.45;;;;;;;;;;4979238;28;20586;-57
2021/11/26 02:43:47;;;;;;;1.90;0.30;;;;;;;;;;4981308;28;20050;-56
2021/11/26 02:46:13;;;;;;;0.90;0.45;;;;;;;;;;4981339;28;20045;-56
2021/11/26 02:48:39;;;;;;;1.08;0.38;;;;;;;;;;4979174;28;20042;-53
2021/11/26 02:51:05;;;;;;;0.35;0.30;;;;;;;;;;4951693;28;20108;-56
2021/11/26 02:53:31;;;;;;;0.77;0.30;;;;;;;;;;4980882;28;20084;-57
2021/11/26 02:55:57;;;;;;;1.05;0.40;;;;;;;;;;4979146;28;20042;-55
2021/11/26 02:58:23;;;;;;;0.57;0.30;;;;;;;;;;4956636;28;21139;-55
2021/11/26 03:00:52;;;;;;;0.25;0.25;;;;;;;;;;4981199;28;20125;-57
2021/11/26 03:03:18;;;;;;;1.70;0.35;;;;;;;;;;4985157;28;20034;-56
2021/11/26 03:05:44;;;;;;;0.30;0.30;;;;;;;;;;4986379;28;20046;-55
2021/11/26 03:08:10;;;;;;;0.73;0.30;;;;;;;;;;4985351;28;20149;-53
2021/11/26 03:10:36;;;;;;;4.47;0.60;;;;;;;;;;4983369;28;20054;-57
2021/11/26 03:13:07;;;;;;;0.55;0.30;;;;;;;;;;4984198;28;20117;-57
2021/11/26 03:15:35;;;;;;;0.43;0.30;;;;;;;;;;4964557;28;21706;-58
2021/11/26 03:18:01;;;;;;;0.70;0.40;;;;;;;;;;4984090;28;20046;-54
2021/11/26 03:20:27;;;;;;;0.20;0.20;;;;;;;;;;4983191;28;20049;-55
2021/11/26 03:22:54;;;;;;;0.30;0.20;;;;;;;;;;4983337;28;20045;-55
2021/11/26 03:25:20;;;;;;;0.80;0.30;;;;;;;;;;4968204;28;20121;-56
2021/11/26 03:27:46;;;;;;;2.08;0.32;;;;;;;;;;4985089;28;20031;-55
2021/11/26 03:30:14;;;;;;;0.30;0.30;;;;;;;;;;4981188;28;20046;-57
2021/11/26 03:32:40;;;;;;;1.25;0.40;;;;;;;;;;4985198;28;20082;-54
2021/11/26 03:35:06;;;;;;;0.52;0.30;;;;;;;;;;4982386;28;20126;-57
2021/11/26 03:37:33;;;;;;;0.43;0.30;;;;;;;;;;4982141;28;20456;-57
2021/11/26 03:39:59;;;;;;;1.45;0.30;;;;;;;;;;4952001;28;20121;-56
2021/11/26 03:42:25;;;;;;;1.95;0.40;;;;;;;;;;4984703;28;20088;-57
2021/11/26 03:44:50;;;;;;;4.32;0.52;;;;;;;;;;4986642;28;20038;-58
2021/11/26 03:47:16;;;;;;;7.03;0.40;;;;;;;;;;4984668;28;20041;-56
2021/11/26 03:49:42;;;;;;;2.33;0.60;;;;;;;;;;4984704;28;20570;-57
2021/11/26 03:52:08;;;;;;;4.80;0.63;;;;;;;;;;4986413;28;20034;-57
2021/11/26 03:54:34;;;;;;;0.82;0.40;;;;;;;;;;4984874;28;20057;-56
2021/11/26 03:57:00;;;;;;;0.95;0.40;;;;;;;;;;4983669;28;20396;-57
2021/11/26 03:59:26;;;;;;;1.33;0.50;;;;;;;;;;4982768;28;20034;-54
2021/11/26 04:01:52;;;;;;;5.30;0.60;;;;;;;;;;4984228;28;20041;-57
2021/11/26 04:04:18;;;;;;;11.15;0.95;;;;;;;;;;4984482;28;20038;-56
2021/11/26 04:06:44;;;;;;;4.05;0.50;;;;;;;;;;4986508;28;20054;-54
2021/11/26 04:09:10;;;;;;;2.22;0.50;;;;;;;;;;4986586;28;20059;-57
2021/11/26 04:11:36;;;;;;;5.65;0.68;;;;;;;;;;4956015;28;20073;-57
2021/11/26 04:14:02;;;;;;;2.08;0.40;;;;;;;;;;4985513;28;20054;-56
2021/11/26 04:16:28;;;;;;;0.98;0.40;;;;;;;;;;4983612;28;20424;-53
2021/11/26 04:18:53;;;;;;;1.23;0.50;;;;;;;;;;4981558;28;20060;-55
2021/11/26 04:21:19;;;;;;;2.05;0.57;;;;;;;;;;4980929;28;20034;-56
2021/11/26 04:23:45;;;;;;;1.35;0.50;;;;;;;;;;4981668;28;20038;-57
2021/11/26 04:26:11;;;;;;;1.92;0.60;;;;;;;;;;4984896;28;20046;-56
2021/11/26 04:28:37;;;;;;;2.60;0.70;;;;;;;;;;4984050;28;20096;-58
2021/11/26 04:31:04;;;;;;;3.00;0.70;;;;;;;;;;4983116;28;20490;-56
2021/11/26 04:33:31;;;;;;;2.70;0.60;;;;;;;;;;4982024;28;20026;-55
2021/11/26 04:35:57;;;;;;;1.58;0.50;;;;;;;;;;4983647;28;20050;-57
2021/11/26 04:38:23;;;;;;;2.78;0.60;;;;;;;;;;4983742;28;20049;-57
2021/11/26 04:40:49;;;;;;;1.20;0.50;;;;;;;;;;4980658;28;20049;-57
2021/11/26 04:43:15;;;;;;;3.20;0.75;;;;;;;;;;4983411;28;20045;-55
2021/11/26 04:45:41;;;;;;;0.38;0.30;;;;;;;;;;4983525;28;20088;-54
2021/11/26 04:48:07;;;;;;;0.57;0.35;;;;;;;;;;4983998;28;20045;-55
2021/11/26 04:50:33;;;;;;;0.32;0.30;;;;;;;;;;4981846;28;20069;-56
2021/11/26 04:52:59;;;;;;;0.75;0.30;;;;;;;;;;4984162;28;20131;-55
2021/11/26 04:55:25;;;;;;;0.30;0.30;;;;;;;;;;4964968;28;20613;-56
2021/11/26 04:57:51;;;;;;;0.50;0.35;;;;;;;;;;4965792;28;21076;-57
2021/11/26 05:00:18;;;;;;;0.45;0.30;;;;;;;;;;4982845;28;20078;-55
2021/11/26 05:02:44;;;;;;;0.93;0.40;;;;;;;;;;4964486;28;20186;-57
2021/11/26 05:05:11;;;;;;;0.55;0.40;;;;;;;;;;4982617;28;20042;-54
2021/11/26 05:07:37;;;;;;;0.77;0.35;;;;;;;;;;4983489;28;20050;-57
2021/11/26 05:10:04;;;;;;;0.82;0.30;;;;;;;;;;4982314;28;20045;-56
2021/11/26 05:12:37;;;;;;;0.30;0.30;;;;;;;;;;4983504;28;20065;-57
2021/11/26 05:15:04;;;;;;;0.43;0.30;;;;;;;;;;4982478;28;20772;-58
2021/11/26 05:17:30;;;;;;;0.45;0.30;;;;;;;;;;4981982;28;21000;-55
2021/11/26 05:19:56;;;;;;;0.30;0.30;;;;;;;;;;4980388;28;20050;-57
2021/11/26 05:22:21;;;;;;;0.30;0.30;;;;;;;;;;4982224;28;20423;-56
2021/11/26 05:24:47;;;;;;;0.30;0.30;;;;;;;;;;4981743;28;20152;-57
2021/11/26 05:27:13;;;;;;;0.25;0.25;;;;;;;;;;4983158;28;20062;-56
2021/11/26 05:29:39;;;;;;;0.60;0.40;;;;;;;;;;4980921;28;20098;-57
2021/11/26 05:32:05;;;;;;;2.22;0.30;;;;;;;;;;4981731;28;20149;-58
2021/11/26 05:34:31;;;;;;;0.40;0.30;;;;;;;;;;4981884;28;20097;-56
2021/11/26 05:36:57;;;;;;;0.30;0.30;;;;;;;;;;4980970;28;20554;-56
2021/11/26 05:39:23;;;;;;;0.30;0.30;;;;;;;;;;4979538;28;20113;-57
2021/11/26 05:41:49;;;;;;;0.22;0.22;;;;;;;;;;4981620;28;20100;-56
2021/11/26 05:44:15;;;;;;;0.70;0.40;;;;;;;;;;4982798;28;20041;-55
2021/11/26 05:46:41;;;;;;;0.20;0.20;;;;;;;;;;4981072;28;20050;-54
2021/11/26 05:49:07;;;;;;;2.13;0.40;;;;;;;;;;4982511;28;20601;-56
2021/11/26 05:51:33;;;;;;;0.30;0.30;;;;;;;;;;4982844;28;20042;-57
2021/11/26 05:53:58;;;;;;;0.90;0.40;;;;;;;;;;4969241;28;20594;-58
2021/11/26 05:56:24;;;;;;;0.30;0.30;;;;;;;;;;4982398;28;20026;-57
2021/11/26 05:58:50;;;;;;;3.30;0.40;;;;;;;;;;4982910;28;20041;-56
2021/11/26 06:01:16;;;;;;;3.03;0.30;;;;;;;;;;4965564;28;20055;-54
2021/11/26 06:03:42;;;;;;;1.35;0.50;;;;;;;;;;4980883;28;20114;-57
2021/11/26 06:06:08;;;;;;;0.38;0.30;;;;;;;;;;4982740;28;20042;-56
2021/11/26 06:08:34;;;;;;;0.20;0.20;;;;;;;;;;4981447;28;20050;-56
2021/11/26 06:11:00;;;;;;;0.77;0.40;;;;;;;;;;4981068;28;20041;-57
2021/11/26 06:13:26;;;;;;;1.90;0.55;;;;;;;;;;4981450;28;20039;-57
2021/11/26 06:15:52;;;;;;;1.73;0.47;;;;;;;;;;4984892;28;20056;-59
2021/11/26 06:18:18;;;;;;;0.40;0.30;;;;;;;;;;4982376;28;20046;-58
2021/11/26 06:20:44;;;;;;;0.32;0.30;;;;;;;;;;4982091;28;20036;-57
2021/11/26 06:23:10;;;;;;;0.63;0.40;;;;;;;;;;4984612;28;21771;-58
2021/11/26 06:25:36;;;;;;;0.80;0.38;;;;;;;;;;4982744;28;20129;-57
2021/11/26 06:28:02;;;;;;;0.45;0.30;;;;;;;;;;4984333;28;20049;-54
2021/11/26 06:30:28;;;;;;;2.90;0.38;;;;;;;;;;4980904;28;20046;-56
2021/11/26 06:32:54;;;;;;;0.82;0.30;;;;;;;;;;4985339;28;20734;-58
2021/11/26 06:35:21;;;;;;;0.22;0.22;;;;;;;;;;4987857;28;20084;-56
2021/11/26 06:37:50;;;;;;;1.00;0.43;;;;;;;;;;4955387;28;20051;-52
2021/11/26 06:40:17;;;;;;;1.15;0.30;;;;;;;;;;4986952;28;20125;-56
2021/11/26 06:43:02;;;;;;;0.30;0.30;;;;;;;;;;4944933;28;20043;-57
2021/11/26 06:45:28;;;;;;;2.38;0.50;;;;;;;;;;4945891;28;20046;-58
2021/11/26 06:47:54;;;;;;;0.43;0.30;;;;;;;;;;4947682;28;20031;-57
2021/11/26 06:50:20;;;;;;;0.32;0.30;;;;;;;;;;4943730;28;20255;-58
2021/11/26 06:52:47;;;;;;;0.80;0.40;;;;;;;;;;4947147;28;20043;-57
2021/11/26 06:55:13;;;;;;;1.55;0.40;;;;;;;;;;4945727;28;20602;-58
2021/11/26 06:57:39;;;;;;;4.28;0.40;;;;;;;;;;4946302;28;20153;-55
2021/11/26 07:00:06;;;;;;;0.30;0.30;;;;;;;;;;4945325;28;20435;-56
2021/11/26 07:02:32;;;;;;;1.00;0.40;;;;;;;;;;4946184;28;20074;-55
2021/11/26 07:04:59;;;;;;;0.35;0.30;;;;;;;;;;4946956;28;20138;-56
2021/11/26 07:07:25;;;;;;;2.00;0.40;;;;;;;;;;4936687;28;20134;-55
2021/11/26 07:09:51;;;;;;;1.33;0.30;;;;;;;;;;4925808;29;20801;-57
2021/11/26 07:12:17;;;;;;;0.65;0.35;;;;;;;;;;4929189;29;20051;-53
2021/11/26 07:14:44;;;;;;;0.63;0.38;;;;;;;;;;4926909;29;20060;-56
2021/11/26 07:17:10;;;;;;;1.52;0.40;;;;;;;;;;4928125;29;22261;-56
2021/11/26 07:19:38;;;;;;;0.50;0.40;;;;;;;;;;4931601;28;20521;-58
2021/11/26 07:22:04;;;;;;;2.80;0.50;;;;;;;;;;4968482;28;20043;-57
2021/11/26 07:24:30;;;;;;;1.10;0.40;;;;;;;;;;4966760;28;20396;-56
2021/11/26 07:26:56;;;;;;;1.20;0.43;;;;;;;;;;4949769;28;20174;-56
2021/11/26 07:29:22;;;;;;;1.38;0.45;;;;;;;;;;4965505;28;20100;-57
2021/11/26 07:31:47;;;;;;;1.33;0.50;;;;;;;;;;4966969;28;20444;-56
2021/11/26 07:34:13;;;;;;;1.33;0.40;;;;;;;;;;4950042;28;20466;-57
2021/11/26 07:36:39;;;;;;;0.80;0.40;;;;;;;;;;4949293;28;20105;-55
2021/11/26 07:39:05;;;;;;;1.17;0.50;;;;;;;;;;4966141;28;20459;-57
2021/11/26 07:41:31;;;;;;;1.42;0.50;;;;;;;;;;4965160;28;20138;-56
2021/11/26 07:43:57;;;;;;;2.90;0.45;;;;;;;;;;4947894;28;20034;-56
2021/11/26 07:46:23;;;;;;;1.15;0.40;;;;;;;;;;4964723;28;20129;-57
2021/11/26 07:48:49;;;;;;;3.13;0.60;;;;;;;;;;4963709;28;20041;-57
2021/11/26 07:51:15;;;;;;;2.13;0.50;;;;;;;;;;4966172;28;20051;-56
2021/11/26 07:53:41;;;;;;;1.77;0.47;;;;;;;;;;4963559;28;20051;-58
2021/11/26 07:56:07;;;;;;;2.38;0.50;;;;;;;;;;4964835;28;20527;-56
2021/11/26 07:58:33;;;;;;;2.70;0.70;;;;;;;;;;4964017;28;20043;-57
2021/11/26 08:00:58;;;;;;;2.05;0.77;;;;;;;;;;4964258;28;20043;-56
2021/11/26 08:03:24;;;;;;;5.47;0.80;;;;;;;;;;4964186;28;20057;-57
2021/11/26 08:05:50;;;;;;;4.03;0.93;;;;;;;;;;4965353;28;20539;-57
2021/11/26 08:08:16;;;;;;;5.80;0.93;;;;;;;;;;4982075;28;20050;-56
2021/11/26 08:10:42;;;;;;;2.35;0.80;;;;;;;;;;4981690;28;20043;-57
2021/11/26 08:13:08;;;;;;;3.50;0.85;;;;;;;;;;4985311;28;20043;-57
2021/11/26 08:15:35;;;;;;;3.70;1.00;;;;;;;;;;4983677;28;20625;-55
2021/11/26 08:18:02;;;;;;;2.75;0.85;;;;;;;;;;4984870;28;20049;-56
2021/11/26 08:20:28;;;;;;;3.25;1.00;;;;;;;;;;4984045;28;20424;-55
2021/11/26 08:22:54;;;;;;;4.45;0.95;;;;;;;;;;4983748;28;20048;-55
2021/11/26 08:25:21;;;;;;;3.42;0.88;;;;;;;;;;4984268;28;20045;-55
2021/11/26 08:27:47;;;;;;;2.88;0.82;;;;;;;;;;4969778;28;20101;-56
2021/11/26 08:30:13;;;;;;;5.28;1.27;;;;;;;;;;4983342;28;20054;-57
2021/11/26 08:32:39;;;;;;;2.70;0.90;;;;;;;;;;4983698;28;20777;-56
2021/11/26 08:35:06;;;;;;;5.25;0.82;;;;;;;;;;4984527;28;20057;-56
2021/11/26 08:37:32;;;;;;;2.80;0.80;;;;;;;;;;4982778;28;20050;-56
2021/11/26 08:39:58;;;;;;;3.20;0.85;;;;;;;;;;4985002;28;20494;-57
2021/11/26 08:42:24;;;;;;;1.60;0.60;;;;;;;;;;4984188;28;20049;-54
2021/11/26 08:44:49;;;;;;;4.85;0.80;;;;;;;;;;4983421;28;20039;-53
2021/11/26 08:47:15;;;;;;;5.20;0.90;;;;;;;;;;4970030;28;20122;-53
2021/11/26 08:49:41;;;;;;;6.20;0.70;;;;;;;;;;4982249;28;20054;-55
2021/11/26 08:52:07;;;;;;;2.22;0.70;;;;;;;;;;4983208;28;20046;-56
2021/11/26 08:54:35;;;;;;;1.17;0.50;;;;;;;;;;4966046;28;20053;-56
2021/11/26 08:57:01;;;;;;;3.35;0.70;;;;;;;;;;4982893;28;20112;-56
2021/11/26 08:59:27;;;;;;;2.80;0.82;;;;;;;;;;4981206;28;20048;-56
2021/11/26 09:01:56;;;;;;;2.40;0.70;;;;;;;;;;4982468;28;20060;-55
2021/11/26 09:04:22;;;;;;;2.58;0.70;;;;;;;;;;4981961;28;20650;-56
2021/11/26 09:06:49;;;;;;;2.03;0.70;;;;;;;;;;4981845;28;20522;-57
2021/11/26 09:09:15;;;;;;;2.55;0.75;;;;;;;;;;4982972;28;20038;-54
2021/11/26 09:11:41;;;;;;;3.38;0.80;;;;;;;;;;4982215;28;20394;-55
2021/11/26 09:14:07;;;;;;;2.85;0.75;;;;;;;;;;4982050;28;20065;-57
2021/11/26 09:16:34;;;;;;;4.30;0.90;;;;;;;;;;4983660;28;20110;-58
2021/11/26 09:19:00;;;;;;;4.18;0.90;;;;;;;;;;4981459;28;20034;-56
2021/11/26 09:21:26;;;;;;;3.45;0.68;;;;;;;;;;4983444;28;20057;-56
2021/11/26 09:23:52;;;;;;;2.55;0.70;;;;;;;;;;4983223;28;20038;-56
2021/11/26 09:26:18;;;;;;;2.50;0.80;;;;;;;;;;4983098;28;20096;-56
2021/11/26 09:28:44;;;;;;;2.45;0.77;;;;;;;;;;4983182;28;20043;-57
2021/11/26 09:31:10;;;;;;;3.97;0.93;;;;;;;;;;4984109;28;20038;-57
2021/11/26 09:33:36;;;;;;;2.05;0.60;;;;;;;;;;4981725;28;20123;-56
2021/11/26 09:36:05;;;;;;;2.35;0.70;;;;;;;;;;4982313;28;20074;-55
2021/11/26 09:38:32;;;;;;;2.22;0.63;;;;;;;;;;4978277;28;20463;-55
2021/11/26 09:40:59;;;;;;;2.75;0.85;;;;;;;;;;4982966;28;20061;-57
2021/11/26 09:43:26;;;;;;;2.58;0.65;;;;;;;;;;4981444;28;20030;-58
2021/11/26 09:45:52;;;;;;;2.20;0.70;;;;;;;;;;4982560;28;20034;-58
2021/11/26 09:48:18;;;;;;;2.30;0.75;;;;;;;;;;4982783;28;20977;-56
2021/11/26 09:50:43;;;;;;;1.75;0.60;;;;;;;;;;4980841;28;20041;-56
2021/11/26 09:53:09;;;;;;;2.33;0.73;;;;;;;;;;4980847;28;20050;-57
2021/11/26 09:55:35;;;;;;;2.25;0.60;;;;;;;;;;4981207;28;20407;-55
2021/11/26 09:58:01;;;;;;;2.20;0.70;;;;;;;;;;4980962;28;20092;-56
2021/11/26 10:00:27;;;;;;;1.92;0.70;;;;;;;;;;4981640;28;20038;-57
2021/11/26 10:02:54;;;;;;;5.07;0.80;;;;;;;;;;4983537;28;20056;-57
2021/11/26 10:05:21;;;;;;;1.92;0.60;;;;;;;;;;4982414;28;20121;-57
2021/11/26 10:07:51;;;;;;;4.03;0.68;;;;;;;;;;4980506;28;20056;-55
2021/11/26 10:10:25;;;;;;;1.77;0.68;;;;;;;;;;4981514;28;20034;-56
2021/11/26 10:12:58;;;;;;;3.80;0.70;;;;;;;;;;4964109;28;20536;-56
2021/11/26 10:15:35;;;;;;;2.75;0.65;;;;;;;;;;4982466;28;20517;-55
2021/11/26 10:18:05;;;;;;;2.83;0.70;;;;;;;;;;4965277;28;20039;-55
2021/11/26 10:20:31;;;;;;;1.83;0.50;;;;;;;;;;4982098;28;20117;-56
2021/11/26 10:22:57;;;;;;;2.65;0.77;;;;;;;;;;4981860;28;20883;-56
2021/11/26 10:25:23;;;;;;;1.83;0.60;;;;;;;;;;4982092;28;20046;-53
2021/11/26 10:27:57;;;;;;;2.10;0.50;;;;;;;;;;4983349;28;20052;-55
2021/11/26 10:30:26;;;;;;;1.33;0.50;;;;;;;;;;4982210;28;20072;-56
2021/11/26 10:32:59;;;;;;;1.55;0.50;;;;;;;;;;4980653;28;20072;-55
2021/11/26 10:35:26;;;;;;;1.48;0.50;;;;;;;;;;4963248;28;20053;-52
2021/11/26 10:37:59;;;;;;;2.50;0.60;;;;;;;;;;4982013;28;20035;-57
2021/11/26 10:40:26;;;;;;;1.45;0.50;;;;;;;;;;4979590;28;20096;-56
2021/11/26 10:42:53;;;;;;;1.83;0.60;;;;;;;;;;4979892;28;20034;-52
2021/11/26 10:45:44;;;;;;;1.58;0.50;;;;;;;;;;4982776;28;20053;-52
2021/11/26 10:48:44;;;;;;;2.08;0.60;;;;;;;;;;4983547;28;20615;-56
2021/11/26 10:59:25;;;;;;;1.25;0.52;;;;;;;;;;4961854;28;20053;-57
2021/11/26 11:01:52;;;;;;;2.30;0.60;;;;;;;;;;4982785;28;20053;-52
2021/11/26 11:04:19;;;;;;;1.35;0.50;;;;;;;;;;4981631;28;20201;-56
2021/11/26 11:06:55;;;;;;;1.48;0.50;;;;;;;;;;4983207;28;20375;-56
2021/11/26 11:09:21;;;;;;;5.75;0.50;;;;;;;;;;4981192;28;20630;-51
2021/11/26 11:11:51;;;;;;;1.30;0.40;;;;;;;;;;4984046;28;20030;-54
2021/11/26 11:14:21;;;;;;;1.90;0.70;;;;;;;;;;4980934;28;20053;-54
2021/11/26 11:16:51;;;;;;;2.25;0.60;;;;;;;;;;4982121;28;20035;-51
2021/11/26 11:19:18;;;;;;;1.50;0.40;;;;;;;;;;4983041;28;20040;-53
2021/11/26 11:21:45;;;;;;;0.73;0.40;;;;;;;;;;4984415;28;20049;-54
2021/11/26 11:24:12;;;;;;;0.65;0.30;;;;;;;;;;4986614;28;20038;-55
2021/11/26 11:26:44;;;;;;;1.17;0.40;;;;;;;;;;4986141;28;20120;-54
2021/11/26 11:29:11;;;;;;;0.98;0.40;;;;;;;;;;4984564;28;20046;-58
2021/11/26 11:31:40;;;;;;;1.20;0.40;;;;;;;;;;4984255;28;21598;-56
2021/11/26 11:34:06;;;;;;;1.48;0.40;;;;;;;;;;4985494;28;20045;-54
2021/11/26 11:36:36;;;;;;;0.63;0.32;;;;;;;;;;4987138;28;20466;-57
2021/11/26 11:39:02;;;;;;;3.83;0.32;;;;;;;;;;4985487;28;20057;-56
2021/11/26 11:41:28;;;;;;;0.63;0.30;;;;;;;;;;4984739;28;20060;-57
2021/11/26 11:43:54;;;;;;;2.65;0.57;;;;;;;;;;4983526;28;20748;-54
2021/11/26 11:46:20;;;;;;;0.35;0.30;;;;;;;;;;4983601;28;20391;-57
2021/11/26 11:48:51;;;;;;;0.75;0.30;;;;;;;;;;4985400;28;20170;-53
2021/11/26 11:51:21;;;;;;;1.50;0.40;;;;;;;;;;4984599;28;20043;-54
2021/11/26 11:53:47;;;;;;;2.95;0.30;;;;;;;;;;4982319;28;20447;-51
2021/11/26 11:56:15;;;;;;;0.38;0.30;;;;;;;;;;4985963;28;20056;-56
2021/11/26 11:58:47;;;;;;;0.32;0.30;;;;;;;;;;4984005;28;20418;-56
2021/11/26 12:01:33;;;;;;;0.35;0.30;;;;;;;;;;4984527;28;20419;-56
2021/11/26 12:03:59;;;;;;;0.43;0.40;;;;;;;;;;4983235;28;20038;-55
2021/11/26 12:06:38;;;;;;;0.30;0.30;;;;;;;;;;4969153;28;20087;-57
2021/11/26 12:09:04;;;;;;;1.17;0.40;;;;;;;;;;4982730;28;20044;-54
2021/11/26 12:11:32;;;;;;;0.30;0.30;;;;;;;;;;4981203;28;20121;-57
2021/11/26 12:14:06;;;;;;;1.45;0.32;;;;;;;;;;4983335;28;20034;-56
2021/11/26 12:16:43;;;;;;;0.70;0.32;;;;;;;;;;4984365;28;20050;-57
2021/11/26 12:19:16;;;;;;;0.35;0.30;;;;;;;;;;4983304;28;20045;-56
2021/11/26 12:21:45;;;;;;;0.30;0.30;;;;;;;;;;4966671;28;20407;-55
2021/11/26 12:24:21;;;;;;;0.30;0.30;;;;;;;;;;4983976;28;20046;-55
2021/11/26 12:26:57;;;;;;;1.88;0.38;;;;;;;;;;4981675;28;20046;-55
2021/11/26 12:29:34;;;;;;;0.20;0.20;;;;;;;;;;4983435;28;20053;-56
2021/11/26 12:32:14;;;;;;;0.30;0.30;;;;;;;;;;4982246;28;20058;-56
2021/11/26 12:34:48;;;;;;;0.30;0.30;;;;;;;;;;4981881;28;20042;-54
2021/11/26 12:37:13;;;;;;;;;;;;;;;;;;4984737;28;21892;-55
2021/11/26 12:39:40;;;;;;;0.25;0.25;;;;;;;;;;4981008;28;19924;-54
2021/11/26 12:42:06;;;;;;;0.30;0.30;;;;;;;;;;4983013;28;20042;-55
2021/11/26 12:44:33;;;;;;;0.47;0.30;;;;;;;;;;4984555;28;20093;-58
2021/11/26 12:47:03;;;;;;;0.30;0.30;;;;;;;;;;4983467;28;20166;-57
2021/11/26 12:52:04;;;;;;;0.43;0.30;;;;;;;;;;4981843;28;20514;-56
2021/11/26 12:54:38;;;;;;;1.08;0.40;;;;;;;;;;4982421;28;20042;-57
2021/11/26 12:57:03;;;;;;;;;;;;;;;;;;4983715;28;20049;-56
2021/11/26 12:59:40;;;;;;;0.30;0.30;;;;;;;;;;4981021;28;19918;-55
2021/11/26 13:02:07;;;;;;;1.02;0.40;;;;;;;;;;4982952;28;20038;-57
2021/11/26 13:04:33;;;;;;;0.25;0.25;;;;;;;;;;4983323;28;20044;-56
2021/11/26 13:07:02;;;;;;;2.13;0.40;;;;;;;;;;4964990;28;20046;-56
2021/11/26 13:09:37;;;;;;;1.17;0.47;;;;;;;;;;4981869;28;20045;-54
2021/11/26 13:12:05;;;;;;;0.30;0.30;;;;;;;;;;4983347;28;20099;-58
2021/11/26 13:14:41;;;;;;;0.75;0.40;;;;;;;;;;4982531;28;20105;-57
2021/11/26 13:17:06;;;;;;;0.35;0.32;;;;;;;;;;4982487;28;20120;-57
2021/11/26 13:19:32;;;;;;;1.65;0.45;;;;;;;;;;4982996;28;20042;-54
2021/11/26 13:21:58;;;;;;;2.38;0.60;;;;;;;;;;4981778;28;20145;-56
2021/11/26 13:24:24;;;;;;;1.33;0.60;;;;;;;;;;4981458;28;20050;-58
2021/11/26 13:26:50;;;;;;;2.03;0.60;;;;;;;;;;4983570;28;20050;-57
2021/11/26 13:29:16;;;;;;;4.72;0.77;;;;;;;;;;4974918;28;20042;-58
2021/11/26 13:31:43;;;;;;;2.25;0.70;;;;;;;;;;4980673;28;20496;-56
2021/11/26 13:34:10;;;;;;;1.58;0.47;;;;;;;;;;4981679;28;20041;-56
2021/11/26 13:36:36;;;;;;;9.35;0.80;;;;;;;;;;4980048;28;20041;-56
2021/11/26 13:39:14;;;;;;;0.98;0.50;;;;;;;;;;4980382;28;20058;-54
2021/11/26 13:41:42;;;;;;;2.67;0.77;;;;;;;;;;4967415;28;20495;-56
2021/11/26 13:44:19;;;;;;;3.72;0.95;;;;;;;;;;4981645;28;20081;-55
2021/11/26 13:46:49;;;;;;;1.60;0.55;;;;;;;;;;4982356;28;20043;-56
2021/11/26 13:49:20;;;;;;;0.63;0.30;;;;;;;;;;4981090;28;20066;-55
2021/11/26 13:51:47;;;;;;;3.42;0.77;;;;;;;;;;4983505;28;20077;-56
2021/11/26 13:54:14;;;;;;;3.13;0.90;;;;;;;;;;4979981;28;20046;-52
2021/11/26 13:56:44;;;;;;;2.13;0.60;;;;;;;;;;4980365;28;20172;-53
2021/11/26 13:59:12;;;;;;;2.15;0.70;;;;;;;;;;4982916;28;20106;-53
2021/11/26 14:01:39;;;;;;;4.68;0.50;;;;;;;;;;4965065;28;20047;-54
2021/11/26 14:04:10;;;;;;;1.40;0.50;;;;;;;;;;4984294;28;20026;-54
2021/11/26 14:06:38;;;;;;;1.92;0.50;;;;;;;;;;4981711;28;20096;-55
2021/11/26 14:09:08;;;;;;;3.80;0.65;;;;;;;;;;4982095;28;20073;-54
2021/11/26 14:11:41;;;;;;;2.67;0.60;;;;;;;;;;4981942;28;20547;-55
2021/11/26 14:14:08;;;;;;;1.55;0.47;;;;;;;;;;4965285;28;20050;-57
2021/11/26 14:16:35;;;;;;;0.93;0.40;;;;;;;;;;4983042;28;20093;-56
2021/11/26 14:19:02;;;;;;;1.27;0.40;;;;;;;;;;4983490;28;20038;-56
2021/11/26 14:21:29;;;;;;;1.38;0.50;;;;;;;;;;4983108;28;20058;-55
2021/11/26 14:23:59;;;;;;;1.10;0.40;;;;;;;;;;4982577;28;20038;-54
2021/11/26 14:26:25;;;;;;;1.42;0.50;;;;;;;;;;4984016;28;20057;-52
2021/11/26 14:29:11;;;;;;;2.75;0.63;;;;;;;;;;4984074;28;20145;-55
2021/11/26 14:31:38;;;;;;;1.80;0.50;;;;;;;;;;4982640;28;20125;-54
2021/11/26 14:34:15;;;;;;;1.83;0.50;;;;;;;;;;4984804;28;20038;-55
2021/11/26 14:36:42;;;;;;;5.90;0.55;;;;;;;;;;4984485;28;20078;-53
2021/11/26 14:39:09;;;;;;;1.48;0.50;;;;;;;;;;4987081;28;20950;-55
2021/11/26 14:41:38;;;;;;;1.90;0.38;;;;;;;;;;4988072;28;20038;-56
2021/11/26 14:44:06;;;;;;;4.50;0.50;;;;;;;;;;4987926;28;20042;-58
2021/11/26 14:46:33;;;;;;;2.05;0.43;;;;;;;;;;4985055;28;20031;-53
2021/11/26 14:49:00;;;;;;;1.25;0.40;;;;;;;;;;4983903;28;20039;-58
2021/11/26 14:51:32;;;;;;;1.02;0.40;;;;;;;;;;4986457;28;20038;-54
2021/11/26 14:54:00;;;;;;;0.55;0.30;;;;;;;;;;4986703;28;20049;-54
2021/11/26 14:56:26;;;;;;;0.90;0.32;;;;;;;;;;4986429;28;20081;-52